Welcome to Des Moines Iowa Weather. I am an independent private personal weather station on the Northwest Side of Des Moines, Iowa. Just East of Windsor Heights and just West of Glendale . This site is also mobile friendly.

There are no active watches, warnings or advisories


Visit our other weather sites:

Historical Data

Weather Station Setup



Weather Underground History page Text

Daily Summary for January 10, 2018 Units:  Both    English   Metric
« Previous Day
Next Day »
Daily Weekly Monthly Yearly Custom
  High: Low: Average:
Temperature: 43.6 °F /  6.4 °C 34.0 °F /  1.1 °C 38.5 °F /  3.6 °C
Dew Point: 41.0 °F /  5 °C 32.0 °F /  0 °C 36.9 °F /  2.7 °C
Humidity: 96 % 89 % 94 %
Wind Speed: 7.0 mph /  11.3 km/h - 1.3 mph /  2.1 km/h
Wind Gust: 10.0 mph /  16.1 km/h - -
Wind:- - South
Pressure: 29.85 in /  1010.7 hPa 29.52 in /  999.5 hPa -
Precipitation: 0.00 in /  0 mm    
Historical Graphs
 
 
Tabular Data for January 10, 2018
Time Temperature Dew Point Pressure Wind Wind Speed Wind Gust Humidity Rainfall Rate (Hourly)
00:08 34.0 °F /  1.1 °C 32.0 °F /  0 °C 29.85 in /  1010.7 hPa SSW 4.0 mph /  6.4 km/h 8.0 mph /  12.9 km/h 91 % 0.00 in /  0 mm
00:38 34.1 °F /  1.2 °C 32.0 °F /  0 °C 29.84 in /  1010.4 hPa Calm   8.0 mph /  12.9 km/h 92 % 0.00 in /  0 mm
00:53 34.1 °F /  1.2 °C 32.0 °F /  0 °C 29.84 in /  1010.4 hPa South 7.0 mph /  11.3 km/h 9.0 mph /  14.5 km/h 92 % 0.00 in /  0 mm
01:09 34.2 °F /  1.2 °C 32.0 °F /  0 °C 29.84 in /  1010.4 hPa SSW 4.0 mph /  6.4 km/h 5.0 mph /  8 km/h 92 % 0.00 in /  0 mm
01:23 34.2 °F /  1.2 °C 32.0 °F /  0 °C 29.84 in /  1010.4 hPa SW 2.0 mph /  3.2 km/h 4.0 mph /  6.4 km/h 92 % 0.00 in /  0 mm
01:38 34.3 °F /  1.3 °C 32.0 °F /  0 °C 29.83 in /  1010 hPa Calm   6.0 mph /  9.7 km/h 92 % 0.00 in /  0 mm
01:53 34.3 °F /  1.3 °C 33.0 °F /  0.6 °C 29.82 in /  1009.7 hPa SSE 1.0 mph /  1.6 km/h 6.0 mph /  9.7 km/h 93 % 0.00 in /  0 mm
02:08 34.3 °F /  1.3 °C 33.0 °F /  0.6 °C 29.82 in /  1009.7 hPa SSW 5.0 mph /  8 km/h 6.0 mph /  9.7 km/h 93 % 0.00 in /  0 mm
02:23 34.4 °F /  1.3 °C 33.0 °F /  0.6 °C 29.82 in /  1009.7 hPa South 1.0 mph /  1.6 km/h 5.0 mph /  8 km/h 93 % 0.00 in /  0 mm
02:54 34.5 °F /  1.4 °C 33.0 °F /  0.6 °C 29.81 in /  1009.4 hPa SSE 1.0 mph /  1.6 km/h 7.0 mph /  11.3 km/h 93 % 0.00 in /  0 mm
03:09 34.6 °F /  1.4 °C 33.0 °F /  0.6 °C 29.80 in /  1009 hPa South 2.0 mph /  3.2 km/h 8.0 mph /  12.9 km/h 93 % 0.00 in /  0 mm
03:24 34.6 °F /  1.4 °C 33.0 °F /  0.6 °C 29.80 in /  1009 hPa SSW 1.0 mph /  1.6 km/h 4.0 mph /  6.4 km/h 93 % 0.00 in /  0 mm
03:39 34.6 °F /  1.4 °C 33.0 °F /  0.6 °C 29.79 in /  1008.7 hPa South 1.0 mph /  1.6 km/h 7.0 mph /  11.3 km/h 94 % 0.00 in /  0 mm
03:54 34.7 °F /  1.5 °C 33.0 °F /  0.6 °C 29.78 in /  1008.4 hPa SSE 4.0 mph /  6.4 km/h 6.0 mph /  9.7 km/h 94 % 0.00 in /  0 mm
04:09 34.7 °F /  1.5 °C 33.0 °F /  0.6 °C 29.77 in /  1008 hPa South 1.0 mph /  1.6 km/h 7.0 mph /  11.3 km/h 94 % 0.00 in /  0 mm
04:24 34.8 °F /  1.6 °C 33.0 °F /  0.6 °C 29.79 in /  1008.7 hPa Calm   5.0 mph /  8 km/h 94 % 0.00 in /  0 mm
04:39 34.8 °F /  1.6 °C 33.0 °F /  0.6 °C 29.77 in /  1008 hPa South 3.0 mph /  4.8 km/h 5.0 mph /  8 km/h 94 % 0.00 in /  0 mm
04:54 35.0 °F /  1.7 °C 34.0 °F /  1.1 °C 29.77 in /  1008 hPa South 3.0 mph /  4.8 km/h 7.0 mph /  11.3 km/h 94 % 0.00 in /  0 mm
05:09 35.0 °F /  1.7 °C 34.0 °F /  1.1 °C 29.76 in /  1007.7 hPa South 2.0 mph /  3.2 km/h 5.0 mph /  8 km/h 94 % 0.00 in /  0 mm
05:24 35.1 °F /  1.7 °C 34.0 °F /  1.1 °C 29.75 in /  1007.3 hPa East 2.0 mph /  3.2 km/h 8.0 mph /  12.9 km/h 95 % 0.00 in /  0 mm
05:39 35.2 °F /  1.8 °C 34.0 °F /  1.1 °C 29.75 in /  1007.3 hPa SSE 3.0 mph /  4.8 km/h 5.0 mph /  8 km/h 95 % 0.00 in /  0 mm
05:55 35.3 °F /  1.8 °C 34.0 °F /  1.1 °C 29.75 in /  1007.3 hPa Calm   5.0 mph /  8 km/h 95 % 0.00 in /  0 mm
06:09 35.4 °F /  1.9 °C 34.0 °F /  1.1 °C 29.75 in /  1007.3 hPa Calm   7.0 mph /  11.3 km/h 95 % 0.00 in /  0 mm
06:24 35.5 °F /  1.9 °C 34.0 °F /  1.1 °C 29.75 in /  1007.3 hPa South 3.0 mph /  4.8 km/h 6.0 mph /  9.7 km/h 95 % 0.00 in /  0 mm
06:39 35.6 °F /  2 °C 34.0 °F /  1.1 °C 29.75 in /  1007.3 hPa SSW 1.0 mph /  1.6 km/h 8.0 mph /  12.9 km/h 95 % 0.00 in /  0 mm
06:54 35.6 °F /  2 °C 34.0 °F /  1.1 °C 29.74 in /  1007 hPa SSE 2.0 mph /  3.2 km/h 7.0 mph /  11.3 km/h 95 % 0.00 in /  0 mm
07:24 35.7 °F /  2.1 °C 34.0 °F /  1.1 °C 29.73 in /  1006.7 hPa South 2.0 mph /  3.2 km/h 6.0 mph /  9.7 km/h 95 % 0.00 in /  0 mm
07:39 35.8 °F /  2.1 °C 35.0 °F /  1.7 °C 29.73 in /  1006.7 hPa Calm   5.0 mph /  8 km/h 95 % 0.00 in /  0 mm
08:09 35.9 °F /  2.2 °C 35.0 °F /  1.7 °C 29.72 in /  1006.3 hPa South 2.0 mph /  3.2 km/h 5.0 mph /  8 km/h 96 % 0.00 in /  0 mm
08:24 36.1 °F /  2.3 °C 35.0 °F /  1.7 °C 29.71 in /  1006 hPa South 3.0 mph /  4.8 km/h 6.0 mph /  9.7 km/h 96 % 0.00 in /  0 mm
08:39 36.3 °F /  2.4 °C 35.0 °F /  1.7 °C 29.71 in /  1006 hPa Calm   9.0 mph /  14.5 km/h 96 % 0.00 in /  0 mm
08:54 36.4 °F /  2.4 °C 35.0 °F /  1.7 °C 29.71 in /  1006 hPa SSW 3.0 mph /  4.8 km/h 5.0 mph /  8 km/h 96 % 0.00 in /  0 mm
09:09 36.7 °F /  2.6 °C 36.0 °F /  2.2 °C 29.70 in /  1005.6 hPa South 4.0 mph /  6.4 km/h 8.0 mph /  12.9 km/h 96 % 0.00 in /  0 mm
09:24 36.9 °F /  2.7 °C 36.0 °F /  2.2 °C 29.70 in /  1005.6 hPa Calm   6.0 mph /  9.7 km/h 96 % 0.00 in /  0 mm
09:39 37.1 °F /  2.8 °C 36.0 °F /  2.2 °C 29.70 in /  1005.6 hPa SW 1.0 mph /  1.6 km/h 6.0 mph /  9.7 km/h 96 % 0.00 in /  0 mm
09:54 37.3 °F /  2.9 °C 36.0 °F /  2.2 °C 29.70 in /  1005.6 hPa South 3.0 mph /  4.8 km/h 5.0 mph /  8 km/h 96 % 0.00 in /  0 mm
10:09 37.5 °F /  3.1 °C 37.0 °F /  2.8 °C 29.70 in /  1005.6 hPa SSW 3.0 mph /  4.8 km/h 6.0 mph /  9.7 km/h 96 % 0.00 in /  0 mm
10:24 37.7 °F /  3.2 °C 37.0 °F /  2.8 °C 29.69 in /  1005.3 hPa SW 1.0 mph /  1.6 km/h 7.0 mph /  11.3 km/h 96 % 0.00 in /  0 mm
10:39 37.9 °F /  3.3 °C 37.0 °F /  2.8 °C 29.69 in /  1005.3 hPa SW 2.0 mph /  3.2 km/h 7.0 mph /  11.3 km/h 96 % 0.00 in /  0 mm
11:10 38.1 °F /  3.4 °C 37.0 °F /  2.8 °C 29.66 in /  1004.3 hPa SSW 1.0 mph /  1.6 km/h 8.0 mph /  12.9 km/h 96 % 0.00 in /  0 mm
11:40 38.5 °F /  3.6 °C 38.0 °F /  3.3 °C 29.63 in /  1003.3 hPa SW 5.0 mph /  8 km/h 7.0 mph /  11.3 km/h 96 % 0.00 in /  0 mm
11:55 38.6 °F /  3.7 °C 38.0 °F /  3.3 °C 29.61 in /  1002.6 hPa SSW 4.0 mph /  6.4 km/h 7.0 mph /  11.3 km/h 96 % 0.00 in /  0 mm
12:10 38.8 °F /  3.8 °C 38.0 °F /  3.3 °C 29.61 in /  1002.6 hPa South 3.0 mph /  4.8 km/h 10.0 mph /  16.1 km/h 96 % 0.00 in /  0 mm
12:25 39.0 °F /  3.9 °C 38.0 °F /  3.3 °C 29.60 in /  1002.3 hPa SSW 2.0 mph /  3.2 km/h 6.0 mph /  9.7 km/h 96 % 0.00 in /  0 mm
12:41 39.5 °F /  4.2 °C 39.0 °F /  3.9 °C 29.59 in /  1001.9 hPa South 2.0 mph /  3.2 km/h 8.0 mph /  12.9 km/h 96 % 0.00 in /  0 mm
12:53 39.7 °F /  4.3 °C 39.0 °F /  3.9 °C 29.59 in /  1001.9 hPa East 1.0 mph /  1.6 km/h 4.0 mph /  6.4 km/h 96 % 0.00 in /  0 mm
13:09 40.1 °F /  4.5 °C 39.0 °F /  3.9 °C 29.57 in /  1001.2 hPa Calm   3.0 mph /  4.8 km/h 96 % 0.00 in /  0 mm
13:31 40.3 °F /  4.6 °C 39.0 °F /  3.9 °C 29.57 in /  1001.2 hPa Calm   6.0 mph /  9.7 km/h 96 % 0.00 in /  0 mm
13:38 40.5 °F /  4.7 °C 39.0 °F /  3.9 °C 29.56 in /  1000.9 hPa SSE 2.0 mph /  3.2 km/h 6.0 mph /  9.7 km/h 95 % 0.00 in /  0 mm
13:53 40.7 °F /  4.8 °C 39.0 °F /  3.9 °C 29.56 in /  1000.9 hPa SSE 2.0 mph /  3.2 km/h 7.0 mph /  11.3 km/h 95 % 0.00 in /  0 mm
14:08 41.0 °F /  5 °C 40.0 °F /  4.4 °C 29.55 in /  1000.6 hPa South 2.0 mph /  3.2 km/h 6.0 mph /  9.7 km/h 95 % 0.00 in /  0 mm
14:23 41.2 °F /  5.1 °C 40.0 °F /  4.4 °C 29.53 in /  999.9 hPa SSW 2.0 mph /  3.2 km/h 5.0 mph /  8 km/h 94 % 0.00 in /  0 mm
14:39 41.4 °F /  5.2 °C 40.0 °F /  4.4 °C 29.52 in /  999.5 hPa Calm   4.0 mph /  6.4 km/h 94 % 0.00 in /  0 mm
14:54 41.8 °F /  5.4 °C 40.0 °F /  4.4 °C 29.52 in /  999.5 hPa South 3.0 mph /  4.8 km/h 4.0 mph /  6.4 km/h 94 % 0.00 in /  0 mm
15:09 42.2 °F /  5.7 °C 41.0 °F /  5 °C 29.53 in /  999.9 hPa Calm   4.0 mph /  6.4 km/h 94 % 0.00 in /  0 mm
15:24 42.6 °F /  5.9 °C 41.0 °F /  5 °C 29.52 in /  999.5 hPa South 3.0 mph /  4.8 km/h 4.0 mph /  6.4 km/h 93 % 0.00 in /  0 mm
15:40 42.9 °F /  6.1 °C 41.0 °F /  5 °C 29.52 in /  999.5 hPa Calm   3.0 mph /  4.8 km/h 93 % 0.00 in /  0 mm
15:54 43.1 °F /  6.2 °C 41.0 °F /  5 °C 29.53 in /  999.9 hPa Calm   2.0 mph /  3.2 km/h 92 % 0.00 in /  0 mm
16:09 43.4 °F /  6.3 °C 41.0 °F /  5 °C 29.52 in /  999.5 hPa Calm   5.0 mph /  8 km/h 92 % 0.00 in /  0 mm
16:24 43.6 °F /  6.4 °C 41.0 °F /  5 °C 29.52 in /  999.5 hPa Calm   4.0 mph /  6.4 km/h 91 % 0.00 in /  0 mm
16:46 43.6 °F /  6.4 °C 41.0 °F /  5 °C 29.52 in /  999.5 hPa Calm   4.0 mph /  6.4 km/h 90 % 0.00 in /  0 mm
16:54 43.5 °F /  6.4 °C 41.0 °F /  5 °C 29.54 in /  1000.2 hPa Calm   3.0 mph /  4.8 km/h 90 % 0.00 in /  0 mm
17:09 43.3 °F /  6.3 °C 40.0 °F /  4.4 °C 29.54 in /  1000.2 hPa Calm     89 % 0.00 in /  0 mm
17:24 42.9 °F /  6.1 °C 40.0 °F /  4.4 °C 29.54 in /  1000.2 hPa Calm     89 % 0.00 in /  0 mm
17:39 42.3 °F /  5.7 °C 39.0 °F /  3.9 °C 29.54 in /  1000.2 hPa Calm     89 % 0.00 in /  0 mm
17:54 41.7 °F /  5.4 °C 39.0 °F /  3.9 °C 29.54 in /  1000.2 hPa Calm     89 % 0.00 in /  0 mm
18:09 41.0 °F /  5 °C 38.0 °F /  3.3 °C 29.55 in /  1000.6 hPa Calm     90 % 0.00 in /  0 mm
18:24 40.3 °F /  4.6 °C 38.0 °F /  3.3 °C 29.54 in /  1000.2 hPa Calm     90 % 0.00 in /  0 mm
18:39 39.8 °F /  4.3 °C 37.0 °F /  2.8 °C 29.54 in /  1000.2 hPa Calm     91 % 0.00 in /  0 mm
18:54 39.5 °F /  4.2 °C 37.0 °F /  2.8 °C 29.54 in /  1000.2 hPa Calm     92 % 0.00 in /  0 mm
19:09 39.2 °F /  4 °C 37.0 °F /  2.8 °C 29.55 in /  1000.6 hPa Calm     92 % 0.00 in /  0 mm
19:39 40.1 °F /  4.5 °C 39.0 °F /  3.9 °C 29.55 in /  1000.6 hPa Calm     94 % 0.00 in /  0 mm
19:54 40.2 °F /  4.6 °C 39.0 °F /  3.9 °C 29.55 in /  1000.6 hPa Calm     94 % 0.00 in /  0 mm
20:09 39.9 °F /  4.4 °C 38.0 °F /  3.3 °C 29.56 in /  1000.9 hPa Calm     94 % 0.00 in /  0 mm
20:24 39.7 °F /  4.3 °C 38.0 °F /  3.3 °C 29.56 in /  1000.9 hPa Calm     94 % 0.00 in /  0 mm
20:39 39.8 °F /  4.3 °C 38.0 °F /  3.3 °C 29.55 in /  1000.6 hPa Calm     94 % 0.00 in /  0 mm
21:09 40.6 °F /  4.8 °C 39.0 °F /  3.9 °C 29.55 in /  1000.6 hPa SW 2.0 mph /  3.2 km/h 3.0 mph /  4.8 km/h 95 % 0.00 in /  0 mm
21:24 41.4 °F /  5.2 °C 40.0 °F /  4.4 °C 29.56 in /  1000.9 hPa Calm   1.0 mph /  1.6 km/h 95 % 0.00 in /  0 mm
21:39 41.4 °F /  5.2 °C 40.0 °F /  4.4 °C 29.57 in /  1001.2 hPa Calm     95 % 0.00 in /  0 mm
22:09 41.3 °F /  5.2 °C 40.0 °F /  4.4 °C 29.58 in /  1001.6 hPa Calm     95 % 0.00 in /  0 mm
22:24 41.4 °F /  5.2 °C 40.0 °F /  4.4 °C 29.58 in /  1001.6 hPa Calm   2.0 mph /  3.2 km/h 95 % 0.00 in /  0 mm
22:39 41.6 °F /  5.3 °C 40.0 °F /  4.4 °C 29.58 in /  1001.6 hPa Calm   3.0 mph /  4.8 km/h 95 % 0.00 in /  0 mm
22:54 41.9 °F /  5.5 °C 41.0 °F /  5 °C 29.59 in /  1001.9 hPa Calm   2.0 mph /  3.2 km/h 95 % 0.00 in /  0 mm
23:10 42.1 °F /  5.6 °C 41.0 °F /  5 °C 29.59 in /  1001.9 hPa Calm   3.0 mph /  4.8 km/h 95 % 0.00 in /  0 mm
23:24 42.0 °F /  5.6 °C 40.0 °F /  4.4 °C 29.59 in /  1001.9 hPa Calm   2.0 mph /  3.2 km/h 94 % 0.00 in /  0 mm
23:54 42.2 °F /  5.7 °C 41.0 °F /  5 °C 29.59 in /  1001.9 hPa Calm   2.0 mph /  3.2 km/h 94 % 0.00 in /  0 mm
Des Moines Weather and Climate
Compliments of Weather Underground - 2.75 mb

Script developed by  Jim McMurry - jmcmurry@mwt.net Adapted for the template by  Wim van der Kuil - Leuven-Template.eu

You find our weather info also at:

Weather Underground

Equipment we use:

Weather-station
Davis VP2 Plus

Weather-program
Davis Weatherlink.Com

Weather-server
iMac (Retina 4K, 21.5-inch, Late 2015)

Provider
Hostmonster.com

Davis VP2 Plus

Davis Weatherlink.Com

iMac (Retina 4K, 21.5-inch, Late 2015)

Hostmonster.com